createdAt,value
2022-10-19T00:04:12.115Z,101
2022-10-19T00:09:11.538Z,101
2022-10-19T00:14:11.167Z,101
2022-10-19T00:19:10.756Z,101
2022-10-19T00:24:10.180Z,101
2022-10-19T00:29:11.257Z,101
2022-10-19T00:34:07.875Z,101
2022-10-19T00:39:07.452Z,101
2022-10-19T00:44:07.677Z,101
2022-10-19T00:49:11.427Z,101
2022-10-19T00:54:05.506Z,101
2022-10-19T00:58:51.344Z,101
2022-10-19T01:03:51.572Z,101
2022-10-19T01:08:51.765Z,101
2022-10-19T01:13:50.931Z,101
2022-10-19T01:18:49.476Z,101
2022-10-19T01:23:49.549Z,101
2022-10-19T01:28:49.330Z,101
2022-10-19T01:33:47.924Z,101
2022-10-19T01:38:46.919Z,101
2022-10-19T01:43:47.155Z,101
2022-10-19T01:48:46.741Z,101
2022-10-19T01:53:46.084Z,101
2022-10-19T01:58:45.278Z,101
2022-10-19T02:03:45.251Z,101
2022-10-19T02:08:44.288Z,101
2022-10-19T02:13:45.155Z,102
2022-10-19T02:18:42.367Z,102
2022-10-19T02:23:42.190Z,102
2022-10-19T02:28:42.359Z,102
2022-10-19T02:33:41.820Z,102
2022-10-19T02:38:39.904Z,102
2022-10-19T02:43:39.811Z,102
2022-10-19T02:48:39.818Z,102
2022-10-19T02:53:38.941Z,102
2022-10-19T02:58:38.735Z,102
2022-10-19T03:03:37.620Z,102
2022-10-19T03:08:37.286Z,102
2022-10-19T03:13:36.711Z,102
2022-10-19T03:18:35.295Z,102
2022-10-19T03:23:34.682Z,102
2022-10-19T03:28:34.832Z,102
2022-10-19T03:33:33.840Z,102
2022-10-19T03:38:33.204Z,102
2022-10-19T03:43:32.842Z,102
2022-10-19T03:48:32.756Z,102
2022-10-19T03:53:33.792Z,102
2022-10-19T03:58:37.839Z,102
2022-10-19T04:03:30.358Z,102
2022-10-19T04:08:30.441Z,102
2022-10-19T04:13:29.303Z,102
2022-10-19T04:18:28.682Z,102
2022-10-19T04:23:27.819Z,102
2022-10-19T04:28:28.191Z,102
2022-10-19T04:33:27.359Z,102
2022-10-19T04:38:27.918Z,102
2022-10-19T04:43:24.714Z,102
2022-10-19T04:48:25.071Z,102
2022-10-19T04:58:23.751Z,102
2022-10-19T04:59:44.314Z,102
2022-10-19T05:04:45.820Z,102
2022-10-19T05:09:43.271Z,102
2022-10-19T05:14:44.036Z,102
2022-10-19T05:19:41.449Z,102
2022-10-19T05:24:41.013Z,102
2022-10-19T05:29:41.154Z,102
2022-10-19T05:34:40.749Z,102
2022-10-19T05:39:38.964Z,102
2022-10-19T05:49:38.511Z,102
2022-10-19T05:54:38.108Z,102
2022-10-19T05:58:49.468Z,102
2022-10-19T06:03:48.962Z,102
2022-10-19T06:08:48.560Z,102
2022-10-19T06:13:48.166Z,102
2022-10-19T06:18:45.713Z,102
2022-10-19T06:23:45.859Z,102
2022-10-19T06:28:45.658Z,102
2022-10-19T06:33:49.174Z,102
2022-10-19T06:38:44.544Z,102
2022-10-19T06:43:43.753Z,102
2022-10-19T06:48:43.456Z,102
2022-10-19T06:53:42.820Z,102
2022-10-19T06:58:43.458Z,102
2022-10-19T07:03:40.674Z,102
2022-10-19T07:08:40.791Z,102
2022-10-19T07:13:39.732Z,102
2022-10-19T07:18:39.541Z,102
2022-10-19T07:23:37.727Z,102
2022-10-19T07:28:37.601Z,102
2022-10-19T07:33:37.407Z,102
2022-10-19T07:38:37.054Z,102
2022-10-19T07:43:36.413Z,102
2022-10-19T07:48:35.832Z,102
2022-10-19T07:53:35.634Z,102
2022-10-19T07:58:35.675Z,102
2022-10-19T07:59:57.420Z,102
2022-10-19T08:05:05.170Z,102
2022-10-19T08:09:57.019Z,102
2022-10-19T08:14:56.357Z,102
2022-10-19T08:19:55.322Z,102
2022-10-19T08:24:54.932Z,102
2022-10-19T08:29:54.692Z,101
2022-10-19T08:34:54.359Z,101
2022-10-19T08:39:54.919Z,101
2022-10-19T08:44:52.202Z,101
2022-10-19T08:49:52.034Z,101
2022-10-19T08:54:51.687Z,101
2022-10-19T08:58:55.983Z,100
2022-10-19T09:03:56.800Z,99
2022-10-19T09:08:54.206Z,99
2022-10-19T09:14:05.791Z,99
2022-10-19T09:23:52.958Z,98
2022-10-19T09:28:52.126Z,98
2022-10-19T09:33:52.388Z,97
2022-10-19T09:38:51.501Z,96
2022-10-19T09:43:49.977Z,95
2022-10-19T09:48:49.117Z,94
2022-10-19T09:53:49.716Z,94
2022-10-19T09:58:48.900Z,94
2022-10-19T10:03:52.521Z,94
2022-10-19T10:08:47.438Z,93
2022-10-19T10:13:47.220Z,92
2022-10-19T10:18:46.338Z,91
2022-10-19T10:23:47.370Z,90
2022-10-19T10:28:44.731Z,89
2022-10-19T10:33:46.436Z,88
2022-10-19T10:38:43.873Z,87
2022-10-19T10:43:43.719Z,85
2022-10-19T10:48:42.849Z,83
2022-10-19T10:53:42.605Z,82
2022-10-19T10:58:42.354Z,81
2022-10-19T11:03:42.068Z,81
2022-10-19T11:08:41.582Z,82
2022-10-19T11:13:42.032Z,79
2022-10-19T11:18:41.825Z,79
2022-10-19T11:23:41.984Z,76
2022-10-19T11:28:39.738Z,76
2022-10-19T11:33:39.572Z,76
2022-10-19T11:38:39.154Z,75
2022-10-19T11:43:38.646Z,77
2022-10-19T11:48:43.066Z,78
2022-10-19T11:53:36.841Z,79
2022-10-19T11:58:36.348Z,79
2022-10-19T12:00:14.846Z,79
2022-10-19T12:04:58.898Z,79
2022-10-19T12:09:55.716Z,79
2022-10-19T12:14:55.355Z,78
2022-10-19T12:19:54.483Z,79
2022-10-19T12:24:54.067Z,79
2022-10-19T12:29:52.450Z,78
2022-10-19T12:34:52.540Z,78
2022-10-19T12:39:52.149Z,78
2022-10-19T12:44:56.362Z,79
2022-10-19T12:49:48.928Z,78
2022-10-19T12:54:48.735Z,78
2022-10-19T12:59:12.835Z,78
2022-10-19T13:04:12.462Z,78
2022-10-19T13:09:11.170Z,77
2022-10-19T13:14:10.233Z,77
2022-10-19T13:19:10.155Z,77
2022-10-19T13:24:09.634Z,76
2022-10-19T13:29:14.920Z,74
2022-10-19T13:34:08.460Z,70
2022-10-19T13:39:08.890Z,69
2022-10-19T13:44:08.383Z,68
2022-10-19T13:49:08.268Z,66
2022-10-19T13:54:07.995Z,67
2022-10-19T13:58:53.569Z,66
2022-10-19T14:03:54.486Z,67
2022-10-19T14:08:52.020Z,65
2022-10-19T14:13:51.151Z,66
2022-10-19T14:18:50.056Z,66
2022-10-19T14:23:49.580Z,67
2022-10-19T14:28:47.706Z,70
2022-10-19T14:33:47.985Z,70
2022-10-19T14:38:46.806Z,72
2022-10-19T14:43:47.462Z,72
2022-10-19T14:48:44.664Z,71
2022-10-19T14:53:44.100Z,73
2022-10-19T14:58:43.178Z,75
2022-10-19T15:03:44.555Z,77
2022-10-19T15:08:40.911Z,78
2022-10-19T15:13:39.586Z,79
2022-10-19T15:18:50.159Z,78
2022-10-19T15:23:38.672Z,79
2022-10-19T15:28:42.262Z,80
2022-10-19T15:33:37.233Z,80
2022-10-19T15:38:37.226Z,81
2022-10-19T15:43:36.524Z,81
2022-10-19T15:48:37.523Z,82
2022-10-19T15:53:42.014Z,83
2022-10-19T15:58:34.295Z,83
2022-10-19T16:03:33.628Z,84
2022-10-19T16:08:33.626Z,84
2022-10-19T16:13:32.672Z,84
2022-10-19T16:18:32.194Z,85
2022-10-19T16:23:31.916Z,86
2022-10-19T16:28:32.501Z,86
2022-10-19T16:33:29.801Z,87
2022-10-19T16:38:29.220Z,88
2022-10-19T16:43:28.064Z,88
2022-10-19T16:48:28.081Z,88
2022-10-19T16:53:25.804Z,89
2022-10-19T16:58:25.664Z,89
2022-10-19T16:59:47.235Z,89
2022-10-19T17:04:46.229Z,89
2022-10-19T17:09:45.443Z,89
2022-10-19T17:14:44.884Z,89
2022-10-19T17:19:44.457Z,90
2022-10-19T17:24:43.746Z,90
2022-10-19T17:29:44.355Z,90
2022-10-19T17:34:41.779Z,90
2022-10-19T17:39:41.639Z,91
2022-10-19T17:44:41.248Z,91
2022-10-19T17:49:40.526Z,91
2022-10-19T17:55:11.538Z,92
2022-10-19T17:59:10.929Z,92
2022-10-19T18:04:10.371Z,92
2022-10-19T18:09:11.271Z,92
2022-10-19T18:14:08.119Z,92
2022-10-19T18:19:07.892Z,92
2022-10-19T18:24:09.158Z,93
2022-10-19T18:29:06.327Z,93
2022-10-19T18:34:04.704Z,93
2022-10-19T18:39:04.604Z,93
2022-10-19T18:44:04.416Z,93
2022-10-19T18:49:03.776Z,93
2022-10-19T18:54:03.097Z,94
2022-10-19T18:58:49.464Z,94
2022-10-19T19:03:49.651Z,94
2022-10-19T19:08:48.753Z,94
2022-10-19T19:13:49.712Z,94
2022-10-19T19:18:46.685Z,95
2022-10-19T19:23:46.478Z,95
2022-10-19T19:28:51.627Z,95
2022-10-19T19:33:44.930Z,95
2022-10-19T19:38:44.568Z,95
2022-10-19T19:43:44.511Z,95
2022-10-19T19:48:43.520Z,96
2022-10-19T19:53:44.171Z,96
2022-10-19T19:58:41.295Z,96
2022-10-19T20:00:02.714Z,96
2022-10-19T20:05:02.443Z,96
2022-10-19T20:10:02.265Z,96
2022-10-19T20:15:00.413Z,96
2022-10-19T20:20:00.210Z,96
2022-10-19T20:24:59.436Z,96
2022-10-19T20:30:00.361Z,96
2022-10-19T20:34:57.441Z,96
2022-10-19T20:39:57.468Z,97
2022-10-19T20:44:56.524Z,97
2022-10-19T20:49:55.936Z,97
2022-10-19T20:54:53.929Z,97
2022-10-19T20:59:13.935Z,97
2022-10-19T21:04:13.530Z,97
2022-10-19T21:09:14.371Z,97
2022-10-19T21:14:11.620Z,97
2022-10-19T21:19:11.007Z,98
2022-10-19T21:24:11.252Z,98
2022-10-19T21:29:10.789Z,98
2022-10-19T21:34:08.798Z,98
2022-10-19T21:39:08.497Z,98
2022-10-19T21:44:08.288Z,98
2022-10-19T21:49:07.894Z,98
2022-10-19T21:54:07.187Z,98
2022-10-19T21:58:52.730Z,98
2022-10-19T22:04:03.302Z,98
2022-10-19T22:08:52.034Z,98
2022-10-19T22:13:52.809Z,98
2022-10-19T22:18:49.882Z,98
2022-10-19T22:23:49.414Z,99
2022-10-19T22:28:48.712Z,99
2022-10-19T22:33:48.766Z,99
2022-10-19T22:38:48.410Z,98
2022-10-19T22:43:48.405Z,98
2022-10-19T22:48:47.707Z,98
2022-10-19T22:53:48.135Z,98
2022-10-19T22:58:45.204Z,98
2022-10-19T23:03:45.694Z,98
2022-10-19T23:08:45.556Z,98
2022-10-19T23:13:45.133Z,98
2022-10-19T23:18:43.317Z,98
2022-10-19T23:23:42.653Z,98
2022-10-19T23:28:42.865Z,98
2022-10-19T23:33:42.157Z,98
2022-10-19T23:38:41.385Z,98
2022-10-19T23:43:40.991Z,97
2022-10-19T23:48:40.594Z,97
2022-10-19T23:58:40.850Z,97
